Time;durP1;ratioP1;P1;durP2;ratioP2;P2;SDS_P1;SDS_P2;PMS_P1;PMS_P2;Temp;Humidity;BMP_temperature;BMP_pressure;BME280_temperature;BME280_humidity;BME280_pressure;Samples;Min_cycle;Max_cycle;Signal;HPM_P1;HPM_P2
2022/01/30 00:00:38;;;;;;;25.50;3.70;;;;;;;6.32;71.20;102551.69;5035193;28;20076;-74
2022/01/30 00:03:05;;;;;;;24.13;4.10;;;;;;;6.28;71.47;102556.88;5019124;28;20051;-73
2022/01/30 00:05:34;;;;;;;26.20;3.95;;;;;;;6.25;71.24;102552.47;5024897;28;20038;-72
2022/01/30 00:08:01;;;;;;;18.35;3.25;;;;;;;6.20;71.42;102560.28;5037546;28;20049;-74
2022/01/30 00:10:31;;;;;;;30.15;4.15;;;;;;;6.16;71.37;102547.97;5033472;28;20068;-76
2022/01/30 00:13:00;;;;;;;24.38;3.42;;;;;;;6.15;71.45;102550.59;5028528;28;20485;-77
2022/01/30 00:15:38;;;;;;;27.15;3.53;;;;;;;6.12;71.45;102551.41;5031829;28;20520;-73
2022/01/30 00:20:41;;;;;;;24.13;3.90;;;;;;;6.01;71.72;102546.00;5022639;28;20046;-76
2022/01/30 00:23:14;;;;;;;23.23;3.20;;;;;;;5.98;71.54;102553.78;5027681;28;20037;-77
2022/01/30 00:25:49;;;;;;;21.05;3.22;;;;;;;5.95;71.61;102551.13;5030873;28;20138;-75
2022/01/30 00:28:18;;;;;;;24.02;4.25;;;;;;;5.97;71.32;102554.66;5037141;28;20041;-76
2022/01/30 00:30:46;;;;;;;25.23;3.47;;;;;;;5.96;71.36;102552.88;5025467;28;20078;-72
2022/01/30 00:33:13;;;;;;;17.65;3.40;;;;;;;5.94;71.41;102557.19;5033146;28;20042;-74
2022/01/30 00:35:41;;;;;;;25.48;3.95;;;;;;;5.93;71.29;102554.56;5026914;28;20042;-75
2022/01/30 00:38:15;;;;;;;26.30;3.67;;;;;;;5.88;71.44;102555.38;5037403;28;20041;-71
2022/01/30 00:40:44;;;;;;;24.00;3.85;;;;;;;5.86;71.51;102559.69;5028272;28;20492;-75
2022/01/30 00:43:13;;;;;;;22.30;3.58;;;;;;;5.78;71.70;102566.53;5023365;28;20046;-74
2022/01/30 00:45:40;;;;;;;23.98;3.65;;;;;;;5.73;71.75;102574.31;5019541;28;20152;-75
2022/01/30 00:48:08;;;;;;;24.70;4.70;;;;;;;5.70;71.73;102579.47;5018985;28;20042;-71
2022/01/30 00:50:37;;;;;;;27.50;3.45;;;;;;;5.68;71.61;102581.22;5018120;28;20030;-73
2022/01/30 00:53:05;;;;;;;22.70;4.45;;;;;;;5.71;71.28;102572.53;5030576;28;20043;-77
2022/01/30 00:55:32;;;;;;;23.63;4.00;;;;;;;5.71;71.09;102578.63;5031864;28;20050;-73
2022/01/30 00:58:00;;;;;;;24.20;4.40;;;;;;;5.73;71.17;102587.38;5037859;28;20108;-75
2022/01/30 01:00:28;;;;;;;20.15;3.45;;;;;;;5.72;71.13;102582.13;5034015;28;20043;-76
2022/01/30 01:02:56;;;;;;;28.63;3.58;;;;;;;5.70;70.95;102587.31;5041706;28;20134;-78
2022/01/30 01:05:23;;;;;;;22.65;2.90;;;;;;;5.72;71.08;102603.06;5019847;28;20505;-77
2022/01/30 01:07:55;;;;;;;25.50;4.03;;;;;;;5.72;71.09;102588.25;5016010;28;20043;-74
2022/01/30 01:10:40;;;;;;;30.05;3.78;;;;;;;5.68;71.16;102585.53;5033864;28;20768;-77
2022/01/30 01:23:59;;;;;;;30.00;4.68;;;;;;;5.52;71.72;102585.28;5027803;28;20092;-72
2022/01/30 01:26:27;;;;;;;25.92;4.57;;;;;;;5.47;71.73;102584.28;5031409;28;20093;-72
2022/01/30 01:28:54;;;;;;;32.08;4.13;;;;;;;5.42;72.08;102597.28;5032296;28;20038;-73
2022/01/30 01:31:22;;;;;;;26.25;3.75;;;;;;;5.40;72.20;102595.50;5026457;28;20594;-72
2022/01/30 01:34:25;;;;;;;23.10;4.07;;;;;;;5.35;72.24;102591.91;5033040;28;20461;-74
2022/01/30 01:36:42;;;;;;;35.10;5.20;;;;;;;5.27;72.59;102600.47;5026404;28;20133;-73
2022/01/30 01:39:10;;;;;;;26.85;3.90;;;;;;;5.20;72.82;102598.59;5036436;28;20041;-72
2022/01/30 01:41:37;;;;;;;31.45;4.57;;;;;;;5.18;73.02;102594.19;5036863;28;20109;-74
2022/01/30 01:44:17;;;;;;;22.45;4.20;;;;;;;5.14;73.07;102593.22;5028184;28;20050;-75
2022/01/30 01:46:46;;;;;;;24.13;4.28;;;;;;;5.08;73.14;102582.66;5018452;28;20041;-72
2022/01/30 01:49:20;;;;;;;31.73;4.78;;;;;;;5.05;73.26;102585.19;5035416;28;20046;-74
2022/01/30 01:52:03;;;;;;;22.58;4.13;;;;;;;4.98;73.49;102590.31;5028917;28;20101;-74
2022/01/30 01:54:30;;;;;;;27.50;4.82;;;;;;;4.96;73.67;102594.63;5031918;28;20509;-72
2022/01/30 01:56:58;;;;;;;23.27;3.83;;;;;;;4.96;73.49;102601.59;5026153;28;20097;-74
2022/01/30 01:59:46;;;;;;;28.48;4.43;;;;;;;4.95;73.44;102595.47;5035915;28;20034;-72
2022/01/30 02:02:32;;;;;;;26.33;4.30;;;;;;;4.94;73.32;102588.47;5024082;28;20050;-71
2022/01/30 02:05:02;;;;;;;26.30;4.18;;;;;;;4.89;73.45;102591.84;5030309;28;20047;-74
2022/01/30 02:10:02;;;;;;;27.85;3.75;;;;;;;4.83;73.30;102592.63;5035332;28;20065;-74
2022/01/30 02:12:43;;;;;;;22.50;4.28;;;;;;;4.80;73.36;102589.94;5027523;28;20074;-72
2022/01/30 02:26:03;;;;;;;27.70;4.15;;;;;;;4.71;73.35;102587.13;5019653;28;20492;-73
2022/01/30 02:28:33;;;;;;;29.30;4.13;;;;;;;4.72;73.31;102587.13;5018410;28;20048;-75
2022/01/30 02:31:08;;;;;;;25.42;4.00;;;;;;;4.74;73.10;102598.50;5033073;28;20041;-73
2022/01/30 02:33:35;;;;;;;34.35;4.38;;;;;;;4.78;72.78;102591.63;5026014;28;20043;-73
2022/01/30 02:36:03;;;;;;;25.80;3.60;;;;;;;4.81;72.58;102587.34;5028429;28;20050;-74
2022/01/30 02:38:30;;;;;;;16.05;2.97;;;;;;;4.84;72.33;102602.19;5036885;28;20061;-74
2022/01/30 02:40:58;;;;;;;23.45;3.42;;;;;;;4.84;72.44;102602.19;5056993;28;20048;-76
2022/01/30 02:43:34;;;;;;;20.60;3.40;;;;;;;4.85;72.53;102597.88;5033213;28;20046;-72
2022/01/30 02:48:57;;;;;;;17.70;2.97;;;;;;;4.88;71.92;102614.50;5048949;28;20358;-79
2022/01/30 02:51:33;;;;;;;25.13;3.55;;;;;;;4.91;72.13;102613.66;5031487;28;20547;-76
2022/01/30 02:54:03;;;;;;;19.98;4.57;;;;;;;4.91;72.26;102613.66;5014114;28;20174;-75
2022/01/30 02:56:36;;;;;;;22.88;3.92;;;;;;;4.91;72.31;102618.91;5034855;28;20064;-74
2022/01/30 02:59:03;;;;;;;25.27;4.05;;;;;;;4.91;72.37;102621.50;5031256;28;20042;-75
2022/01/30 03:01:30;;;;;;;25.38;3.55;;;;;;;4.93;72.35;102627.66;5016090;28;20042;-76
2022/01/30 03:03:59;;;;;;;28.67;4.35;;;;;;;4.97;72.37;102629.50;5026076;28;20042;-75
2022/01/30 03:06:27;;;;;;;23.92;3.75;;;;;;;4.96;72.30;102633.81;5032320;28;20042;-76
2022/01/30 03:08:55;;;;;;;24.98;3.60;;;;;;;4.94;72.47;102645.09;5034926;28;20046;-75
2022/01/30 03:11:23;;;;;;;20.15;3.35;;;;;;;4.89;72.63;102649.34;5018628;28;20096;-72
2022/01/30 03:13:50;;;;;;;28.90;3.75;;;;;;;4.87;72.85;102661.50;5032973;28;20046;-75
2022/01/30 03:16:17;;;;;;;17.92;2.90;;;;;;;4.82;73.08;102667.50;5051380;28;20065;-74
2022/01/30 03:18:45;;;;;;;25.92;3.15;;;;;;;4.80;73.26;102661.34;5021041;28;20054;-79
2022/01/30 03:21:13;;;;;;;21.10;4.10;;;;;;;4.78;73.25;102677.84;5022252;28;20038;-79
2022/01/30 03:23:40;;;;;;;21.25;3.33;;;;;;;4.77;73.39;102671.75;5034585;28;20129;-80
2022/01/30 03:26:09;;;;;;;21.00;3.50;;;;;;;4.76;73.48;102682.16;5027999;28;20038;-80
2022/01/30 03:29:06;;;;;;;;;;;;;;;4.73;73.78;102692.56;5031570;28;20511;-80
2022/01/30 03:31:41;;;;;;;23.38;3.05;;;;;;;4.73;73.73;102693.41;5031402;28;19926;-72
2022/01/30 03:34:11;;;;;;;27.20;3.40;;;;;;;4.75;73.92;102688.22;5018754;28;20054;-77
2022/01/30 03:36:50;;;;;;;22.95;4.13;;;;;;;4.78;73.92;102693.53;5022257;28;22108;-82
2022/01/30 03:39:18;;;;;;;21.73;3.45;;;;;;;4.82;73.92;102698.00;5039328;28;20408;-74
2022/01/30 03:41:47;;;;;;;23.33;3.25;;;;;;;4.90;73.69;102700.75;5031070;28;20046;-70
2022/01/30 03:44:16;;;;;;;24.08;3.00;;;;;;;4.97;73.60;102705.31;5024983;28;20113;-70
2022/01/30 03:46:44;;;;;;;24.58;3.42;;;;;;;5.00;73.39;102705.34;5017828;28;20046;-70
2022/01/30 03:49:24;;;;;;;26.48;4.13;;;;;;;5.01;73.27;102711.47;5032310;28;20034;-70
2022/01/30 03:51:51;;;;;;;22.30;3.40;;;;;;;5.02;73.47;102713.25;5033522;28;20140;-77
2022/01/30 03:54:33;;;;;;;26.17;3.55;;;;;;;5.01;73.38;102712.34;5034566;28;20049;-71
2022/01/30 03:57:02;;;;;;;24.20;3.83;;;;;;;4.94;73.23;102703.47;5015413;28;20050;-75
2022/01/30 03:59:29;;;;;;;18.52;3.22;;;;;;;4.86;73.73;102702.44;5014896;28;20070;-75
2022/01/30 04:01:57;;;;;;;20.38;3.47;;;;;;;4.81;73.91;102704.94;5043234;28;20080;-74
2022/01/30 04:04:27;;;;;;;27.80;3.88;;;;;;;4.79;74.12;102703.13;5022050;28;20088;-72
2022/01/30 04:06:59;;;;;;;27.40;3.80;;;;;;;4.74;74.03;102700.41;5022992;28;20077;-72
2022/01/30 04:09:49;;;;;;;21.10;3.22;;;;;;;4.73;73.94;102700.41;5024690;28;20124;-72
2022/01/30 04:12:37;;;;;;;18.52;3.05;;;;;;;4.70;74.06;102708.16;5023728;28;20054;-72
2022/01/30 04:15:25;;;;;;;16.75;2.83;;;;;;;4.71;73.88;102695.13;5018965;28;20132;-71
2022/01/30 04:18:04;;;;;;;21.63;3.30;;;;;;;4.71;73.79;102702.09;5041944;28;20047;-74
2022/01/30 04:20:35;;;;;;;27.30;3.45;;;;;;;4.66;73.89;102705.44;5023312;28;20042;-76
2022/01/30 04:23:25;;;;;;;27.45;3.38;;;;;;;4.58;73.99;102699.16;5026229;28;20054;-73
2022/01/30 04:26:10;;;;;;;28.95;3.40;;;;;;;4.53;74.21;102716.44;5027548;28;20126;-74
2022/01/30 04:28:56;;;;;;;18.30;2.95;;;;;;;4.49;74.25;102720.72;5027909;28;20031;-73
2022/01/30 04:31:49;;;;;;;26.50;3.88;;;;;;;4.44;74.39;102724.94;5028408;28;20046;-73
2022/01/30 04:34:55;;;;;;;23.73;3.08;;;;;;;4.40;74.47;102723.09;5015716;28;20576;-74
2022/01/30 04:59:30;;;;;;;18.45;2.80;;;;;;;4.43;72.51;102719.66;5030108;28;20149;-73
2022/01/30 05:02:29;;;;;;;14.45;2.47;;;;;;;4.39;72.48;102731.75;5017077;28;20701;-70
2022/01/30 05:05:40;;;;;;;19.83;2.55;;;;;;;4.34;72.58;102725.56;5024556;28;20042;-75
2022/01/30 05:08:18;;;;;;;19.27;2.72;;;;;;;4.30;72.55;102729.81;5020687;28;20182;-75
2022/01/30 05:11:02;;;;;;;16.95;2.38;;;;;;;4.29;72.46;102740.19;5055735;28;20060;-75
2022/01/30 05:13:59;;;;;;;15.50;2.83;;;;;;;4.23;72.44;102740.91;5022916;28;20053;-72
2022/01/30 05:16:31;;;;;;;12.65;2.38;;;;;;;4.17;72.67;102740.78;5035098;28;20110;-76
2022/01/30 05:19:26;;;;;;;17.80;2.92;;;;;;;4.14;72.67;102741.59;5016276;28;20112;-73
2022/01/30 05:22:08;;;;;;;18.55;2.28;;;;;;;4.10;72.66;102738.84;5026004;28;20516;-78
2022/01/30 05:24:52;;;;;;;19.05;2.47;;;;;;;4.07;72.40;102734.41;5033051;28;20042;-78
2022/01/30 05:27:27;;;;;;;11.48;2.10;;;;;;;4.03;72.59;102729.97;5040747;28;20057;-76
2022/01/30 05:30:07;;;;;;;11.27;2.03;;;;;;;4.00;72.56;102740.31;5022401;28;20491;-76
2022/01/30 05:32:41;;;;;;;12.88;2.45;;;;;;;3.96;72.71;102741.09;5032026;28;20053;-75
2022/01/30 05:35:28;;;;;;;16.40;3.13;;;;;;;3.89;72.80;102747.84;5022070;28;20540;-74
2022/01/30 05:38:14;;;;;;;13.05;2.05;;;;;;;3.88;72.67;102749.56;5036408;28;20069;-75
2022/01/30 05:41:21;;;;;;;15.13;2.13;;;;;;;3.92;72.54;102760.97;5029949;28;20053;-75
2022/01/30 05:43:52;;;;;;;17.48;2.20;;;;;;;3.98;72.58;102766.38;5034554;28;20737;-73
2022/01/30 05:46:51;;;;;;;18.15;2.10;;;;;;;4.01;72.37;102765.56;5015938;28;20050;-76
2022/01/30 05:49:37;;;;;;;15.13;2.45;;;;;;;4.00;72.29;102762.09;5025761;28;20042;-72
2022/01/30 05:52:16;;;;;;;15.00;2.40;;;;;;;4.00;72.36;102762.09;5044096;28;20053;-75
2022/01/30 05:55:04;;;;;;;16.42;1.88;;;;;;;4.02;71.95;102759.50;5045585;28;20049;-70
2022/01/30 05:57:31;;;;;;;14.38;2.05;;;;;;;4.03;72.09;102754.31;5040480;28;20516;-80
2022/01/30 06:00:01;;;;;;;19.30;2.40;;;;;;;4.10;71.93;102762.34;5028138;28;20815;-77
2022/01/30 06:02:47;;;;;;;17.63;2.55;;;;;;;4.17;71.85;102752.09;5022504;28;20420;-70
2022/01/30 06:05:17;;;;;;;10.18;2.10;;;;;;;4.26;71.54;102764.50;5024862;28;20146;-77
2022/01/30 06:07:51;;;;;;;13.27;1.73;;;;;;;4.27;71.58;102762.81;5020919;28;20161;-75
2022/01/30 06:10:23;;;;;;;19.17;2.13;;;;;;;4.26;71.64;102769.72;5040341;28;20076;-76
2022/01/30 06:12:50;;;;;;;17.70;2.33;;;;;;;4.19;71.92;102778.25;5017552;28;20052;-70
2022/01/30 06:15:18;;;;;;;16.55;2.50;;;;;;;4.11;72.21;102783.25;5033130;28;20057;-70
2022/01/30 06:17:50;;;;;;;12.90;2.10;;;;;;;4.03;72.45;102785.66;5027550;28;20105;-72
2022/01/30 06:20:55;;;;;;;15.52;2.05;;;;;;;3.96;72.62;102788.94;5033083;28;20170;-76
2022/01/30 06:23:41;;;;;;;17.50;2.15;;;;;;;3.86;72.87;102781.69;5031589;28;20114;-77
2022/01/30 06:26:28;;;;;;;15.20;1.75;;;;;;;3.79;73.09;102784.97;5018604;28;20050;-76
2022/01/30 06:29:24;;;;;;;17.63;2.60;;;;;;;3.72;73.28;102781.28;5020576;28;20133;-77
2022/01/30 06:32:11;;;;;;;13.25;1.83;;;;;;;3.69;73.33;102791.63;5034854;28;20052;-78
2022/01/30 06:34:59;;;;;;;11.93;1.95;;;;;;;3.71;73.33;102789.94;5004842;28;20050;-72
2022/01/30 06:37:44;;;;;;;11.27;1.80;;;;;;;3.75;73.23;102801.34;5028440;28;20041;-72
2022/01/30 06:40:26;;;;;;;15.20;2.50;;;;;;;3.79;72.95;102805.84;5017947;28;20086;-75
2022/01/30 06:43:12;;;;;;;17.05;2.03;;;;;;;3.78;72.93;102804.94;5033165;28;20034;-73
2022/01/30 06:46:17;;;;;;;18.15;2.22;;;;;;;3.81;72.76;102815.47;5012116;28;20493;-71
2022/01/30 06:49:03;;;;;;;13.85;2.10;;;;;;;3.86;72.74;102816.50;5014176;28;20047;-75
2022/01/30 06:52:09;;;;;;;12.00;2.00;;;;;;;3.89;72.69;102815.72;5015579;28;20062;-74
2022/01/30 06:54:54;;;;;;;17.42;2.30;;;;;;;3.97;72.39;102823.75;5031398;28;20038;-73
2022/01/30 06:57:45;;;;;;;15.43;2.17;;;;;;;4.01;72.38;102826.50;5027205;28;20044;-73
2022/01/30 07:00:48;;;;;;;14.82;1.90;;;;;;;4.06;72.50;102834.47;5020302;28;20504;-73
2022/01/30 07:03:47;;;;;;;16.02;3.03;;;;;;;4.08;72.48;102832.75;5033412;28;20077;-73
2022/01/30 07:06:30;;;;;;;16.73;2.25;;;;;;;4.08;72.32;102837.97;5032615;28;20046;-71
2022/01/30 07:08:57;;;;;;;19.13;2.25;;;;;;;4.07;72.25;102837.94;5034907;28;20042;-71
2022/01/30 07:11:24;;;;;;;12.25;2.15;;;;;;;4.04;72.31;102842.22;5029566;28;20073;-73
2022/01/30 07:13:51;;;;;;;16.65;3.22;;;;;;;4.03;72.45;102844.81;5025043;28;20068;-71
2022/01/30 07:16:19;;;;;;;16.52;2.42;;;;;;;4.07;72.31;102851.00;5030371;28;20042;-72
2022/01/30 07:18:46;;;;;;;14.57;2.53;;;;;;;4.07;72.39;102851.88;5045535;28;20041;-72
2022/01/30 07:21:15;;;;;;;20.33;2.88;;;;;;;4.04;72.36;102852.69;5033959;28;20039;-70
2022/01/30 07:23:42;;;;;;;17.90;2.38;;;;;;;4.02;72.50;102853.47;5023231;28;20493;-74
2022/01/30 07:26:10;;;;;;;8.80;1.98;;;;;;;4.00;72.60;102861.28;5049705;28;20404;-74
2022/01/30 07:28:37;;;;;;;13.73;2.10;;;;;;;3.96;72.92;102863.75;5032180;28;20181;-73
2022/01/30 07:31:04;;;;;;;14.88;2.22;;;;;;;3.96;73.28;102882.03;5026074;28;20038;-72
2022/01/30 07:33:33;;;;;;;17.52;2.05;;;;;;;3.94;72.58;102883.69;5048457;28;20125;-73
2022/01/30 07:36:01;;;;;;;16.42;2.40;;;;;;;3.91;72.49;102883.59;5040551;28;20914;-73
2022/01/30 07:38:29;;;;;;;15.05;2.33;;;;;;;3.88;72.27;102872.22;5019254;28;20077;-74
2022/01/30 07:40:56;;;;;;;17.05;2.35;;;;;;;3.84;72.46;102883.41;5033893;28;20125;-75
2022/01/30 07:43:23;;;;;;;14.68;2.58;;;;;;;3.86;72.44;102875.63;5028212;28;20042;-74
2022/01/30 07:46:04;;;;;;;14.73;2.53;;;;;;;3.88;72.25;102881.78;5031604;28;20053;-75
2022/01/30 07:48:32;;;;;;;19.13;3.10;;;;;;;3.87;72.19;102878.25;5040663;28;20401;-76
2022/01/30 07:50:59;;;;;;;21.02;2.72;;;;;;;3.87;72.45;102882.63;5035222;28;20045;-75
2022/01/30 07:53:26;;;;;;;16.15;2.60;;;;;;;3.93;72.87;102884.53;5034995;28;20038;-75
2022/01/30 07:55:54;;;;;;;14.77;2.63;;;;;;;4.00;73.12;102889.97;5017181;28;20449;-77
2022/01/30 07:58:21;;;;;;;17.90;2.72;;;;;;;4.10;72.89;102896.34;5033520;28;20073;-75
2022/01/30 08:00:48;;;;;;;15.73;2.15;;;;;;;4.13;72.70;102887.72;5029372;28;20535;-73
2022/01/30 08:03:15;;;;;;;15.23;2.42;;;;;;;4.12;72.37;102899.03;5026126;28;20081;-73
2022/01/30 08:05:43;;;;;;;13.05;2.70;;;;;;;4.04;72.31;102902.28;5031552;28;20484;-72
2022/01/30 08:08:10;;;;;;;19.58;2.63;;;;;;;3.98;72.44;102903.81;5031464;28;20045;-73
2022/01/30 08:10:39;;;;;;;14.52;2.72;;;;;;;3.92;72.58;102909.72;5048481;28;20479;-74
2022/01/30 08:13:07;;;;;;;17.33;2.90;;;;;;;3.89;72.70;102907.03;5035363;28;20042;-76
2022/01/30 08:15:34;;;;;;;23.08;2.80;;;;;;;3.89;72.73;102907.03;5030711;28;20526;-75
2022/01/30 08:18:01;;;;;;;16.58;3.17;;;;;;;3.95;72.79;102914.19;5030696;28;20034;-75
2022/01/30 08:20:28;;;;;;;16.02;2.60;;;;;;;4.04;72.65;102911.84;5033100;28;20070;-74
2022/01/30 08:22:56;;;;;;;18.30;2.78;;;;;;;4.11;72.73;102913.78;5038513;28;20136;-74
2022/01/30 08:25:24;;;;;;;19.55;2.53;;;;;;;4.10;72.70;102909.41;5031826;28;20038;-73
2022/01/30 08:27:54;;;;;;;16.98;3.20;;;;;;;4.09;72.79;102912.84;5038369;28;20042;-73
2022/01/30 08:30:21;;;;;;;20.90;3.17;;;;;;;4.11;72.83;102916.41;5038367;28;20041;-74
2022/01/30 08:32:52;;;;;;;25.42;3.25;;;;;;;4.19;72.66;102907.06;5037308;28;20041;-76
2022/01/30 08:35:20;;;;;;;15.32;2.67;;;;;;;4.30;72.34;102910.00;5045920;28;20049;-74
2022/01/30 08:37:47;;;;;;;14.30;2.40;;;;;;;4.44;72.22;102909.47;5035770;28;20068;-71
2022/01/30 08:40:18;;;;;;;16.70;2.40;;;;;;;4.53;72.15;102909.75;5058505;28;20046;-73
2022/01/30 08:42:48;;;;;;;17.27;2.55;;;;;;;4.57;71.93;102908.13;5019183;28;20070;-74
2022/01/30 08:45:18;;;;;;;14.48;2.65;;;;;;;4.63;71.85;102908.28;5041451;28;20046;-72
2022/01/30 08:47:49;;;;;;;21.48;2.95;;;;;;;4.66;71.68;102921.44;5018252;28;20038;-72
2022/01/30 08:50:18;;;;;;;18.20;2.88;;;;;;;4.69;71.46;102918.91;5038463;28;20046;-74
2022/01/30 08:52:46;;;;;;;18.48;3.30;;;;;;;4.73;71.40;102935.56;5037945;28;20785;-74
2022/01/30 08:55:15;;;;;;;14.95;2.40;;;;;;;4.77;71.43;102929.56;5026466;28;20515;-72
2022/01/30 08:57:42;;;;;;;18.95;3.20;;;;;;;4.80;71.30;102935.75;5043468;28;20500;-74
2022/01/30 09:00:13;;;;;;;25.05;3.28;;;;;;;4.89;71.56;102935.13;5036987;28;20038;-72
2022/01/30 09:02:42;;;;;;;19.95;2.72;;;;;;;4.96;71.54;102937.06;5031857;28;20046;-68
2022/01/30 09:05:12;;;;;;;20.77;3.30;;;;;;;5.02;71.56;102941.56;5031303;28;20042;-67
2022/01/30 09:07:40;;;;;;;18.55;3.10;;;;;;;5.08;70.95;102946.06;5033713;28;20668;-72
2022/01/30 09:10:11;;;;;;;19.50;2.65;;;;;;;5.11;70.76;102944.41;5026339;28;20038;-73
2022/01/30 09:12:39;;;;;;;25.90;3.17;;;;;;;5.12;70.33;102950.56;5021283;28;20116;-71
2022/01/30 09:15:11;;;;;;;20.05;2.78;;;;;;;5.17;70.40;102946.31;5025029;28;20077;-70
2022/01/30 09:17:39;;;;;;;24.02;3.00;;;;;;;5.26;69.92;102958.75;5029332;28;20635;-70
2022/01/30 09:20:08;;;;;;;25.25;3.50;;;;;;;5.37;69.40;102953.78;5031577;28;20046;-71
2022/01/30 09:22:36;;;;;;;19.50;2.85;;;;;;;5.50;69.10;102949.72;5032739;28;20125;-70
2022/01/30 09:25:07;;;;;;;21.95;3.58;;;;;;;5.57;69.10;102949.94;5028111;28;20133;-71
2022/01/30 09:27:34;;;;;;;18.88;3.33;;;;;;;5.63;68.80;102957.03;5030058;28;20042;-69
2022/01/30 09:30:06;;;;;;;20.40;3.00;;;;;;;5.66;68.49;102954.50;5027008;28;20073;-70
2022/01/30 09:32:34;;;;;;;23.90;3.15;;;;;;;5.70;68.01;102951.09;5028830;28;20037;-70
2022/01/30 09:35:03;;;;;;;26.73;4.47;;;;;;;5.76;67.83;102947.75;5026576;28;20046;-69
2022/01/30 09:37:30;;;;;;;26.77;4.05;;;;;;;5.88;67.75;102958.50;5018571;28;20043;-71
2022/01/30 09:39:57;;;;;;;19.35;4.07;;;;;;;6.08;67.67;102957.25;5022940;28;20033;-71
2022/01/30 09:42:25;;;;;;;25.88;4.35;;;;;;;6.15;67.36;102961.75;5029235;28;20823;-70
2022/01/30 09:44:52;;;;;;;29.33;4.47;;;;;;;6.17;67.11;102960.94;5022486;28;20031;-73
2022/01/30 09:47:21;;;;;;;20.38;3.38;;;;;;;6.26;66.24;102972.47;5020935;28;20492;-71
2022/01/30 09:49:51;;;;;;;21.15;3.30;;;;;;;6.26;66.56;102972.47;5026312;28;20093;-69
2022/01/30 09:52:20;;;;;;;24.45;3.55;;;;;;;6.24;66.32;102967.19;5029617;28;20038;-71
2022/01/30 09:54:48;;;;;;;21.45;3.33;;;;;;;6.30;66.35;102969.06;5030254;28;20049;-69
2022/01/30 09:57:16;;;;;;;21.05;3.83;;;;;;;6.35;66.13;102970.94;5031326;28;20042;-68
2022/01/30 09:59:44;;;;;;;24.42;4.43;;;;;;;6.44;66.04;102970.25;5028490;28;20409;-69
2022/01/30 10:02:12;;;;;;;28.58;3.53;;;;;;;6.49;66.04;102970.34;5032390;28;20051;-73
2022/01/30 10:04:41;;;;;;;21.73;3.95;;;;;;;6.61;66.03;102969.69;5027141;28;20047;-70
2022/01/30 10:07:15;;;;;;;24.73;3.42;;;;;;;6.66;65.13;102976.81;5024644;28;20036;-67
2022/01/30 10:09:45;;;;;;;21.95;3.08;;;;;;;6.68;64.51;102975.09;5035027;28;20038;-74
2022/01/30 10:12:24;;;;;;;25.63;4.15;;;;;;;6.64;65.04;102982.88;5018694;28;20041;-71
2022/01/30 10:15:11;;;;;;;20.15;3.63;;;;;;;6.60;65.10;102978.41;5016522;28;20878;-75
2022/01/30 10:17:48;;;;;;;30.33;3.60;;;;;;;6.56;65.10;102981.84;5034174;28;20092;-72
2022/01/30 10:20:37;;;;;;;29.50;4.60;;;;;;;6.54;64.15;102987.03;5036169;28;20045;-73
2022/01/30 10:23:09;;;;;;;22.05;3.90;;;;;;;6.48;64.34;102985.16;5032428;28;20049;-71
2022/01/30 10:25:47;;;;;;;17.40;3.13;;;;;;;6.56;64.42;102987.97;5023910;28;20073;-72
2022/01/30 10:28:31;;;;;;;30.10;3.92;;;;;;;6.64;64.04;102991.63;5032218;28;20402;-72
2022/01/30 10:31:03;;;;;;;26.23;4.50;;;;;;;6.73;63.77;102988.31;5031162;28;20074;-72
2022/01/30 10:33:46;;;;;;;23.95;4.50;;;;;;;6.82;63.56;102987.59;5038898;28;20664;-71
2022/01/30 10:36:26;;;;;;;24.25;3.75;;;;;;;6.91;62.93;102993.03;5027456;28;20037;-73
2022/01/30 10:39:17;;;;;;;20.42;4.00;;;;;;;6.99;62.89;102986.19;5029382;28;20050;-72
2022/01/30 10:41:52;;;;;;;27.67;3.75;;;;;;;7.10;63.07;102986.38;5029222;28;20513;-71
2022/01/30 10:44:20;;;;;;;34.97;4.22;;;;;;;7.18;62.09;102989.16;5015301;28;20517;-71
2022/01/30 10:46:51;;;;;;;23.92;3.80;;;;;;;7.26;61.73;102982.31;5033173;28;20045;-72
2022/01/30 10:49:23;;;;;;;19.67;3.95;;;;;;;7.40;60.93;102990.41;5025557;28;20126;-72
2022/01/30 10:51:55;;;;;;;30.50;4.60;;;;;;;7.54;61.31;102989.78;5029142;28;20054;-71
2022/01/30 10:54:26;;;;;;;25.30;3.97;;;;;;;7.70;59.64;102983.91;5027126;28;20844;-72
2022/01/30 10:57:10;;;;;;;26.38;4.45;;;;;;;7.84;59.36;102973.59;5028938;28;20053;-71
2022/01/30 10:59:46;;;;;;;27.63;4.40;;;;;;;7.91;59.16;102988.63;5026824;28;20044;-71
2022/01/30 11:02:18;;;;;;;23.52;3.95;;;;;;;7.92;59.15;102974.63;5016073;28;20054;-71
2022/01/30 11:04:48;;;;;;;31.13;4.68;;;;;;;7.95;59.34;102973.78;5025396;28;20100;-72
2022/01/30 11:07:20;;;;;;;26.10;3.65;;;;;;;7.82;59.31;102977.09;5022493;28;20066;-72
2022/01/30 11:10:03;;;;;;;26.45;4.03;;;;;;;7.64;58.38;102975.94;5025798;28;20041;-71
2022/01/30 11:12:56;;;;;;;33.70;4.05;;;;;;;7.65;58.85;102961.06;5030390;28;20038;-71
2022/01/30 11:17:59;;;;;;;34.20;4.07;;;;;;;7.66;58.52;102968.06;5027662;28;20083;-71
2022/01/30 11:20:30;;;;;;;27.45;3.85;;;;;;;7.60;58.87;102966.22;5033356;28;20050;-70
2022/01/30 11:23:01;;;;;;;25.85;3.47;;;;;;;7.59;58.87;102959.22;5039608;28;20073;-70
2022/01/30 11:25:35;;;;;;;27.67;3.88;;;;;;;7.56;58.72;102960.06;5032761;28;20042;-70
2022/01/30 11:28:05;;;;;;;25.88;3.92;;;;;;;7.51;58.54;102959.13;5032060;28;20404;-70
2022/01/30 11:30:50;;;;;;;24.63;3.70;;;;;;;7.65;58.81;102959.34;5030348;28;20720;-69
2022/01/30 11:33:19;;;;;;;19.02;3.17;;;;;;;7.81;58.32;102956.94;5021633;28;20417;-69
2022/01/30 11:35:46;;;;;;;32.17;4.05;;;;;;;7.97;58.55;102947.53;5033174;28;20042;-69
2022/01/30 11:38:14;;;;;;;20.35;3.25;;;;;;;8.05;57.10;102948.53;5020463;28;20046;-71
2022/01/30 11:40:41;;;;;;;31.73;4.22;;;;;;;8.09;57.18;102943.31;5012972;28;20558;-70
2022/01/30 11:43:09;;;;;;;22.23;3.85;;;;;;;8.07;57.53;102942.44;5015958;28;20054;-67
2022/01/30 11:45:36;;;;;;;34.42;4.90;;;;;;;8.17;56.58;102950.47;5022076;28;20046;-67
2022/01/30 11:48:14;;;;;;;31.50;3.90;;;;;;;8.27;56.80;102946.19;5028943;28;20084;-68
2022/01/30 11:50:42;;;;;;;22.58;4.22;;;;;;;8.36;54.88;102933.16;5035864;28;20050;-72
2022/01/30 11:53:27;;;;;;;22.83;3.47;;;;;;;8.36;54.65;102939.31;5024109;28;20042;-70
2022/01/30 11:56:02;;;;;;;23.10;4.57;;;;;;;8.42;55.10;102935.88;5024929;28;20040;-69
2022/01/30 11:58:29;;;;;;;24.23;4.47;;;;;;;8.29;54.18;102932.19;5025494;28;20073;-69
2022/01/30 12:01:34;;;;;;;24.10;3.63;;;;;;;8.33;55.37;102931.38;5023816;28;20085;-68
2022/01/30 12:04:10;;;;;;;25.35;3.78;;;;;;;8.36;54.91;102934.06;5027815;28;20049;-69
2022/01/30 12:06:41;;;;;;;24.65;3.50;;;;;;;8.43;55.36;102942.00;5024675;28;20041;-68
2022/01/30 12:09:17;;;;;;;23.38;3.88;;;;;;;8.63;54.38;102937.03;5025921;28;20065;-70
2022/01/30 12:11:50;;;;;;;22.02;3.60;;;;;;;8.70;52.91;102931.84;5035468;28;20045;-69
2022/01/30 12:14:20;;;;;;;26.42;3.78;;;;;;;8.60;54.24;102937.84;5044423;28;20157;-71
2022/01/30 12:16:48;;;;;;;32.92;4.07;;;;;;;8.34;53.51;102935.78;5036924;28;20543;-69
2022/01/30 12:19:53;;;;;;;23.83;3.50;;;;;;;8.22;54.22;102926.00;5034732;28;20537;-68
2022/01/30 12:22:25;;;;;;;29.30;4.40;;;;;;;8.21;54.89;102936.47;5028996;28;20102;-69
2022/01/30 12:25:31;;;;;;;27.02;4.43;;;;;;;8.15;55.07;102928.53;5024598;28;20049;-68
2022/01/30 12:28:03;;;;;;;25.70;4.13;;;;;;;8.23;54.37;102924.25;5023803;28;20038;-68
2022/01/30 12:30:50;;;;;;;29.48;4.50;;;;;;;8.27;53.44;102909.41;5030605;28;20968;-70
2022/01/30 12:33:37;;;;;;;18.48;3.65;;;;;;;8.23;53.32;102906.75;5029147;28;20058;-69
2022/01/30 12:36:14;;;;;;;19.85;3.33;;;;;;;8.17;54.17;102911.03;5029933;28;20042;-69
2022/01/30 12:38:44;;;;;;;21.13;3.85;;;;;;;8.05;54.50;102911.75;5033081;28;20512;-70
2022/01/30 12:41:19;;;;;;;22.95;3.55;;;;;;;8.06;55.45;102903.91;5032577;28;20045;-69
2022/01/30 12:44:00;;;;;;;18.65;3.80;;;;;;;8.18;55.46;102895.28;5021409;28;20034;-69
2022/01/30 12:46:33;;;;;;;24.88;3.90;;;;;;;8.46;56.03;102884.22;5025140;28;20042;-70
2022/01/30 12:49:05;;;;;;;23.83;3.27;;;;;;;8.63;56.87;102879.19;5049609;28;20041;-70
2022/01/30 12:51:35;;;;;;;24.90;4.00;;;;;;;8.76;56.79;102885.44;5058186;28;20266;-68
2022/01/30 12:54:04;;;;;;;23.13;4.03;;;;;;;8.58;56.81;102887.03;5018594;28;20053;-70